CheckWX is a tool to help pilots better visualize weather data.  It is not intended as a substitute for an official pre-flight weather briefing.

08:11:48 UTC

KSBN TAF
South Bend International Airport
South Bend, Indiana, USA
KSBN 190532Z 1906/2006 22003KT P6SM SCT050 BKN250 FM191600 24008KT P6SM SCT050 BKN200 FM200100 18004KT P6SM SCT050 BKN150

Mar-19@
06:00 UTC

Mar-19 @ 06:00 UTC

Mar-19@
16:00 UTC

Mar-19 @ 16:00 UTC

KSBN 190532Z 1906/2006 22003KT P6SM SCT050 BKN250
Wind
  • 220° at 3 KTS
Cloud Levels
  • Scattered at 5,000' AGL
  • Broken at 25,000' AGL

Mar-19@
16:00 UTC

Mar-19 @ 16:00 UTC

Mar-20@
01:00 UTC

Mar-20 @ 01:00 UTC

FM191600 24008KT P6SM SCT050 BKN200

From

From Standard forecast or significant change

Wind
  • 240° at 8 KTS
Cloud Levels
  • Scattered at 5,000' AGL
  • Broken at 20,000' AGL

Mar-20@
01:00 UTC

Mar-20 @ 01:00 UTC

Mar-20@
06:00 UTC

Mar-20 @ 06:00 UTC

FM200100 18004KT P6SM SCT050 BKN150

From

From Standard forecast or significant change

Wind
  • 180° at 4 KTS
Cloud Levels
  • Scattered at 5,000' AGL
  • Broken at 15,000' AGL